Arguello, Argentina
Current Conditions -  °F | °C
As of 11:00 PM on Wednesday 17 Dec 2014 (Local Time) from SACO Reporting Station
Scattered Clouds Scattered Clouds  
Wind Chill: 70°   Ceiling: Unl
Heat Index: 70°   Visibility: 6mi
Dew Point: 61°   Wind: 7mph
Humidity: 73%   Direction: 360°N
Pressure: 30.03"   Gusts: NA
Location:  31.36°S, 64.25°W
Report Text: SACO 180200Z 36006KT 9999 SCT020 SCT10021/16 Q1017
Loading
Personal Weather Stations






























Interactive Weather Map New forecast layout! Learn more

10-Day Weather Forecast

Advertisements
Track Severe Weather on mobile